createdAt,value
2018-09-29T00:02:03.425Z,95.60
2018-09-29T00:04:32.259Z,95.70
2018-09-29T00:07:01.835Z,95.70
2018-09-29T00:09:30.715Z,95.80
2018-09-29T00:11:59.516Z,96.10
2018-09-29T00:14:28.353Z,96.10
2018-09-29T00:16:57.178Z,96.20
2018-09-29T00:19:26.008Z,96.30
2018-09-29T00:21:55.586Z,96.30
2018-09-29T00:24:25.162Z,96.70
2018-09-29T00:26:53.995Z,96.80
2018-09-29T00:29:22.857Z,96.90
2018-09-29T00:31:51.687Z,97.10
2018-09-29T00:34:20.534Z,97.30
2018-09-29T00:36:49.363Z,97.20
2018-09-29T00:39:18.952Z,97.30
2018-09-29T00:41:47.783Z,97.80
2018-09-29T00:44:16.617Z,97.60
2018-09-29T00:46:45.454Z,97.60
2018-09-29T00:49:14.287Z,97.70
2018-09-29T00:51:43.116Z,97.90
2018-09-29T00:54:11.946Z,98.10
2018-09-29T00:56:40.788Z,98.00
2018-09-29T00:59:09.639Z,98.00
2018-09-29T01:01:38.472Z,98.20
2018-09-29T01:04:08.052Z,98.00
2018-09-29T01:06:36.877Z,98.10
2018-09-29T01:09:05.712Z,98.20
2018-09-29T01:11:34.550Z,98.20
2018-09-29T01:14:03.380Z,98.20
2018-09-29T01:16:32.211Z,98.30
2018-09-29T01:19:01.053Z,98.30
2018-09-29T01:21:29.887Z,98.50
2018-09-29T01:23:58.712Z,98.50
2018-09-29T01:26:27.536Z,98.60
2018-09-29T01:28:56.387Z,98.50
2018-09-29T01:31:25.333Z,98.50
2018-09-29T01:33:54.170Z,98.60
2018-09-29T01:36:23.012Z,98.60
2018-09-29T01:41:21.298Z,98.70
2018-09-29T01:43:50.140Z,98.80
2018-09-29T01:46:18.994Z,98.80
2018-09-29T01:48:48.575Z,98.70
2018-09-29T01:51:17.421Z,98.80
2018-09-29T01:53:46.284Z,98.70
2018-09-29T01:56:15.871Z,98.60
2018-09-29T01:58:44.720Z,98.70
2018-09-29T02:01:13.563Z,98.70
2018-09-29T02:03:42.418Z,98.80
2018-09-29T02:06:11.268Z,98.50
2018-09-29T02:08:40.109Z,98.60
2018-09-29T02:11:08.978Z,98.80
2018-09-29T02:13:37.825Z,98.90
2018-09-29T02:16:07.427Z,98.80
2018-09-29T02:18:37.010Z,98.70
2018-09-29T02:21:05.849Z,98.90
2018-09-29T02:23:34.678Z,98.80
2018-09-29T02:26:03.522Z,99.00
2018-09-29T02:28:32.378Z,98.90
2018-09-29T02:31:01.966Z,99.00
2018-09-29T02:33:30.808Z,99.10
2018-09-29T02:35:59.643Z,99.10
2018-09-29T02:38:28.478Z,99.30
2018-09-29T02:40:57.314Z,99.20
2018-09-29T02:43:26.147Z,99.10
2018-09-29T02:45:54.984Z,99.30
2018-09-29T02:48:23.827Z,99.50
2018-09-29T02:50:52.682Z,99.50
2018-09-29T02:53:21.549Z,99.50
2018-09-29T02:55:50.625Z,99.80
2018-09-29T02:58:19.219Z,99.80
2018-09-29T03:00:48.053Z,99.80
2018-09-29T03:03:16.914Z,99.70
2018-09-29T03:05:45.759Z,99.50
2018-09-29T03:08:14.606Z,99.60
2018-09-29T03:10:43.435Z,99.80
2018-09-29T03:13:12.284Z,99.80
2018-09-29T03:15:41.132Z,99.60
2018-09-29T03:18:09.963Z,99.70
2018-09-29T03:20:38.813Z,99.90
2018-09-29T03:23:07.729Z,99.90
2018-09-29T03:25:37.225Z,99.90
2018-09-29T03:28:06.062Z,99.70
2018-09-29T03:30:35.633Z,99.90
2018-09-29T03:33:04.479Z,99.90
2018-09-29T03:35:33.322Z,99.90
2018-09-29T03:38:02.187Z,99.90
2018-09-29T03:40:30.996Z,99.90
2018-09-29T03:42:59.831Z,99.90
2018-09-29T03:45:28.654Z,99.90
2018-09-29T03:47:57.490Z,99.90
2018-09-29T03:50:26.330Z,99.90
2018-09-29T03:52:55.171Z,99.90
2018-09-29T03:55:24.092Z,99.90
2018-09-29T03:57:52.833Z,99.90
2018-09-29T04:00:21.674Z,99.90
2018-09-29T04:02:50.514Z,99.90
2018-09-29T04:05:20.092Z,99.90
2018-09-29T04:07:48.927Z,99.90
2018-09-29T04:10:17.763Z,99.90
2018-09-29T04:12:46.601Z,99.90
2018-09-29T04:15:15.457Z,99.90
2018-09-29T04:17:44.287Z,99.90
2018-09-29T04:20:13.116Z,99.90
2018-09-29T04:22:41.941Z,99.90
2018-09-29T04:25:11.517Z,99.90
2018-09-29T04:27:40.347Z,99.90
2018-09-29T04:30:09.182Z,99.90
2018-09-29T04:32:38.011Z,99.90
2018-09-29T04:35:06.843Z,99.90
2018-09-29T04:37:35.668Z,99.90
2018-09-29T04:42:34.661Z,99.90
2018-09-29T04:45:03.494Z,99.90
2018-09-29T04:47:33.076Z,99.90
2018-09-29T04:50:01.905Z,99.90
2018-09-29T04:52:30.734Z,99.90
2018-09-29T04:54:59.554Z,99.90
2018-09-29T04:57:28.401Z,99.90
2018-09-29T04:59:57.237Z,99.90
2018-09-29T05:02:26.085Z,99.90
2018-09-29T05:04:54.916Z,99.90
2018-09-29T05:07:23.957Z,99.90
2018-09-29T05:09:52.790Z,99.90
2018-09-29T05:12:21.645Z,99.90
2018-09-29T05:14:50.470Z,99.90
2018-09-29T05:17:19.307Z,99.90
2018-09-29T05:19:48.145Z,99.90
2018-09-29T05:24:47.134Z,99.90
2018-09-29T05:27:15.953Z,99.90
2018-09-29T05:29:45.523Z,99.90
2018-09-29T05:32:14.346Z,99.90
2018-09-29T05:34:43.948Z,99.90
2018-09-29T05:37:12.737Z,99.90
2018-09-29T05:39:41.576Z,99.90
2018-09-29T05:42:10.406Z,99.90
2018-09-29T05:44:39.245Z,99.90
2018-09-29T05:47:08.077Z,99.90
2018-09-29T05:49:36.905Z,99.90
2018-09-29T05:52:06.483Z,99.90
2018-09-29T05:54:35.309Z,99.90
2018-09-29T05:57:04.139Z,99.90
2018-09-29T05:59:32.965Z,99.90
2018-09-29T06:02:02.549Z,99.90
2018-09-29T06:04:31.414Z,99.90
2018-09-29T06:07:00.221Z,99.90
2018-09-29T06:09:29.031Z,99.90
2018-09-29T06:11:58.587Z,99.90
2018-09-29T06:14:27.416Z,99.90
2018-09-29T06:16:56.245Z,99.90
2018-09-29T06:19:25.065Z,99.90
2018-09-29T06:21:53.897Z,99.90
2018-09-29T06:24:23.464Z,99.90
2018-09-29T06:26:52.307Z,99.90
2018-09-29T06:29:21.146Z,99.90
2018-09-29T06:31:49.976Z,99.90
2018-09-29T06:34:18.859Z,99.90
2018-09-29T06:36:47.683Z,99.90
2018-09-29T06:39:16.487Z,99.90
2018-09-29T06:41:45.313Z,99.90
2018-09-29T06:44:14.879Z,99.90
2018-09-29T06:46:43.709Z,99.90
2018-09-29T06:49:12.546Z,99.90
2018-09-29T06:51:41.367Z,99.90
2018-09-29T06:54:10.192Z,99.90
2018-09-29T06:56:39.764Z,99.90
2018-09-29T06:59:08.588Z,99.90
2018-09-29T07:01:38.161Z,99.90
2018-09-29T07:04:06.992Z,99.90
2018-09-29T07:06:35.823Z,99.90
2018-09-29T07:09:04.660Z,99.90
2018-09-29T07:11:33.520Z,99.90
2018-09-29T07:14:02.324Z,99.90
2018-09-29T07:16:31.198Z,99.90
2018-09-29T07:19:00.059Z,99.90
2018-09-29T07:21:28.982Z,99.90
2018-09-29T07:23:57.771Z,99.90
2018-09-29T07:26:26.603Z,99.50
2018-09-29T07:28:55.439Z,99.60
2018-09-29T07:31:24.329Z,99.50
2018-09-29T07:33:53.300Z,99.90
2018-09-29T07:36:22.133Z,99.00
2018-09-29T07:38:50.954Z,99.00
2018-09-29T07:41:19.786Z,98.70
2018-09-29T07:43:48.766Z,98.70
2018-09-29T07:46:17.565Z,98.50
2018-09-29T07:48:46.396Z,98.20
2018-09-29T07:51:15.988Z,98.20
2018-09-29T07:53:45.564Z,97.90
2018-09-29T07:56:14.401Z,97.70
2018-09-29T07:58:43.971Z,97.70
2018-09-29T08:01:12.828Z,97.30
2018-09-29T08:03:41.669Z,97.20
2018-09-29T08:06:11.248Z,97.20
2018-09-29T08:08:40.082Z,96.70
2018-09-29T08:11:08.914Z,96.60
2018-09-29T08:13:37.756Z,95.00
2018-09-29T08:16:06.595Z,95.30
2018-09-29T08:18:35.432Z,95.20
2018-09-29T08:21:05.082Z,95.30
2018-09-29T08:23:33.901Z,94.40
2018-09-29T08:26:02.741Z,92.10
2018-09-29T08:28:31.925Z,91.00
2018-09-29T08:31:00.687Z,89.10
2018-09-29T08:33:30.275Z,89.20
2018-09-29T08:35:59.122Z,87.90
2018-09-29T08:38:27.959Z,87.50
2018-09-29T08:43:26.237Z,83.50
2018-09-29T08:45:55.180Z,83.00
2018-09-29T08:48:23.975Z,82.80
2018-09-29T08:50:52.813Z,82.20
2018-09-29T08:53:21.765Z,81.00
2018-09-29T08:55:50.473Z,81.40
2018-09-29T08:58:19.298Z,81.10
2018-09-29T09:00:48.153Z,79.40
2018-09-29T09:03:16.981Z,80.00
2018-09-29T09:05:45.820Z,77.60
2018-09-29T09:08:14.657Z,78.80
2018-09-29T09:10:44.230Z,78.40
2018-09-29T09:13:13.073Z,75.40
2018-09-29T09:15:41.931Z,75.10
2018-09-29T09:18:10.781Z,74.50
2018-09-29T09:20:39.621Z,74.10
2018-09-29T09:23:09.252Z,73.70
2018-09-29T09:25:38.027Z,73.30
2018-09-29T09:28:06.884Z,73.80
2018-09-29T09:30:35.716Z,74.50
2018-09-29T09:33:04.542Z,73.50
2018-09-29T09:35:33.386Z,73.20
2018-09-29T09:38:02.223Z,73.10
2018-09-29T09:40:31.051Z,73.20
2018-09-29T09:43:00.627Z,73.20
2018-09-29T09:45:29.450Z,73.60
2018-09-29T09:47:59.129Z,73.30
2018-09-29T09:50:27.955Z,72.50
2018-09-29T09:52:57.523Z,72.60
2018-09-29T09:55:26.384Z,72.50
2018-09-29T09:57:55.215Z,73.30
2018-09-29T10:00:24.080Z,70.10
2018-09-29T10:02:52.927Z,70.00
2018-09-29T10:05:21.768Z,70.60
2018-09-29T10:07:50.616Z,70.30
2018-09-29T10:10:19.449Z,68.80
2018-09-29T10:12:48.299Z,68.10
2018-09-29T10:15:17.144Z,67.40
2018-09-29T10:17:46.716Z,66.90
2018-09-29T10:20:15.549Z,67.10
2018-09-29T10:22:45.133Z,67.00
2018-09-29T10:25:13.975Z,67.50
2018-09-29T10:27:42.836Z,68.00
2018-09-29T10:30:11.645Z,67.50
2018-09-29T10:32:40.494Z,66.20
2018-09-29T10:35:09.332Z,66.00
2018-09-29T10:37:38.158Z,65.50
2018-09-29T10:40:06.991Z,66.20
2018-09-29T10:42:35.847Z,64.70
2018-09-29T10:45:04.682Z,66.40
2018-09-29T10:47:33.525Z,63.70
2018-09-29T10:50:02.352Z,63.80
2018-09-29T10:52:31.197Z,63.20
2018-09-29T10:55:00.031Z,62.60
2018-09-29T10:57:28.867Z,62.00
2018-09-29T10:59:57.698Z,62.00
2018-09-29T11:02:26.537Z,63.30
2018-09-29T11:04:55.373Z,62.20
2018-09-29T11:07:24.200Z,62.50
2018-09-29T11:09:53.053Z,62.70
2018-09-29T11:12:21.878Z,61.50
2018-09-29T11:14:50.716Z,61.80
2018-09-29T11:17:19.556Z,59.20
2018-09-29T11:19:48.392Z,58.70
2018-09-29T11:22:17.972Z,58.30
2018-09-29T11:24:46.824Z,58.00
2018-09-29T11:27:15.675Z,58.50
2018-09-29T11:29:44.525Z,58.60
2018-09-29T11:32:13.365Z,59.40
2018-09-29T11:34:42.935Z,58.80
2018-09-29T11:37:11.780Z,58.10
2018-09-29T11:39:40.611Z,57.30
2018-09-29T11:42:09.512Z,57.60
2018-09-29T11:44:38.414Z,55.00
2018-09-29T11:47:07.201Z,53.10
2018-09-29T11:49:36.044Z,53.90
2018-09-29T11:52:04.877Z,54.30
2018-09-29T11:54:33.727Z,53.90
2018-09-29T11:57:02.563Z,52.90
2018-09-29T11:59:32.169Z,53.10
2018-09-29T12:02:01.745Z,52.30
2018-09-29T12:04:30.575Z,52.20
2018-09-29T12:07:00.177Z,52.90
2018-09-29T12:09:28.997Z,52.10
2018-09-29T12:11:57.834Z,52.20
2018-09-29T12:14:26.667Z,51.90
2018-09-29T12:16:55.509Z,52.70
2018-09-29T12:19:24.367Z,51.60
2018-09-29T12:21:53.195Z,50.00
2018-09-29T12:24:22.065Z,49.20
2018-09-29T12:26:50.910Z,49.40
2018-09-29T12:29:19.752Z,49.60
2018-09-29T12:31:48.601Z,49.90
2018-09-29T12:34:17.428Z,49.00
2018-09-29T12:36:46.332Z,49.50
2018-09-29T12:39:15.110Z,50.00
2018-09-29T12:41:43.935Z,49.10
2018-09-29T12:44:12.766Z,49.10
2018-09-29T12:46:41.586Z,49.20
2018-09-29T12:49:10.802Z,46.70
2018-09-29T12:51:40.509Z,46.50
2018-09-29T12:54:09.217Z,45.70
2018-09-29T12:56:38.052Z,46.60
2018-09-29T12:59:06.894Z,46.90
2018-09-29T13:01:35.737Z,47.10
2018-09-29T13:04:04.574Z,47.00
2018-09-29T13:06:33.423Z,48.20
2018-09-29T13:09:02.263Z,47.20
2018-09-29T13:11:31.090Z,47.10
2018-09-29T13:13:59.930Z,46.40
2018-09-29T13:16:28.751Z,47.50
2018-09-29T13:18:57.608Z,47.60
2018-09-29T13:21:26.448Z,48.60
2018-09-29T13:23:55.294Z,47.50
2018-09-29T13:26:24.161Z,47.90
2018-09-29T13:28:54.111Z,47.60
2018-09-29T13:31:22.566Z,47.60
2018-09-29T13:33:51.414Z,47.90
2018-09-29T13:38:50.403Z,46.70
2018-09-29T13:41:19.242Z,45.80
2018-09-29T13:43:48.076Z,46.60
2018-09-29T13:46:16.968Z,46.80
2018-09-29T13:48:45.779Z,46.20
2018-09-29T13:51:14.840Z,47.50
2018-09-29T13:53:43.663Z,47.50
2018-09-29T13:56:12.445Z,47.30
2018-09-29T14:01:11.436Z,47.70
2018-09-29T14:03:40.266Z,47.70
2018-09-29T14:06:09.850Z,46.90
2018-09-29T14:08:38.727Z,47.10
2018-09-29T14:11:07.523Z,47.10
2018-09-29T14:13:36.347Z,47.10
2018-09-29T14:16:05.188Z,46.90
2018-09-29T14:18:34.027Z,46.70
2018-09-29T14:21:02.867Z,47.10
2018-09-29T14:23:31.704Z,46.40
2018-09-29T14:26:00.556Z,45.50
2018-09-29T14:28:29.408Z,44.70
2018-09-29T14:30:58.257Z,45.90
2018-09-29T14:33:27.817Z,46.10
2018-09-29T14:35:56.662Z,46.30
2018-09-29T14:38:26.238Z,46.20
2018-09-29T14:40:55.073Z,46.80
2018-09-29T14:43:23.908Z,47.80
2018-09-29T14:45:52.730Z,46.70
2018-09-29T14:48:22.309Z,46.50
2018-09-29T14:50:51.143Z,47.80
2018-09-29T14:53:20.779Z,47.50
2018-09-29T14:55:49.627Z,45.10
2018-09-29T14:58:19.207Z,45.00
2018-09-29T15:00:48.057Z,44.90
2018-09-29T15:03:16.889Z,44.60
2018-09-29T15:05:45.729Z,44.40
2018-09-29T15:08:14.568Z,44.90
2018-09-29T15:10:43.391Z,45.30
2018-09-29T15:13:12.237Z,44.70
2018-09-29T15:15:41.067Z,44.40
2018-09-29T15:18:09.894Z,45.40
2018-09-29T15:20:38.735Z,45.00
2018-09-29T15:23:08.306Z,45.80
2018-09-29T15:25:37.143Z,46.80
2018-09-29T15:28:05.991Z,46.00
2018-09-29T15:30:34.844Z,44.40
2018-09-29T15:33:03.695Z,45.10
2018-09-29T15:35:32.539Z,45.20
2018-09-29T15:38:01.375Z,45.30
2018-09-29T15:40:30.948Z,44.90
2018-09-29T15:42:59.803Z,45.10
2018-09-29T15:45:28.622Z,46.50
2018-09-29T15:47:57.455Z,45.70
2018-09-29T15:50:26.292Z,45.70
2018-09-29T15:52:55.118Z,46.00
2018-09-29T15:55:23.990Z,46.30
2018-09-29T15:57:52.805Z,46.80
2018-09-29T16:00:22.391Z,46.40
2018-09-29T16:02:51.229Z,47.20
2018-09-29T16:05:20.081Z,47.70
2018-09-29T16:07:48.914Z,48.20
2018-09-29T16:10:17.753Z,47.20
2018-09-29T16:12:47.338Z,47.20
2018-09-29T16:15:16.177Z,46.90
2018-09-29T16:17:45.022Z,47.60
2018-09-29T16:20:13.883Z,47.60
2018-09-29T16:22:42.721Z,48.10
2018-09-29T16:25:12.319Z,49.60
2018-09-29T16:27:41.909Z,49.40
2018-09-29T16:30:10.741Z,48.80
2018-09-29T16:32:39.586Z,49.90
2018-09-29T16:35:08.436Z,49.70
2018-09-29T16:37:37.274Z,49.50
2018-09-29T16:40:06.112Z,49.80
2018-09-29T16:42:34.942Z,50.00
2018-09-29T16:45:03.783Z,49.60
2018-09-29T16:47:32.622Z,49.60
2018-09-29T16:50:01.448Z,50.20
2018-09-29T16:52:30.296Z,49.60
2018-09-29T16:54:59.142Z,50.60
2018-09-29T16:57:28.047Z,51.00
2018-09-29T16:59:56.847Z,51.30
2018-09-29T17:02:25.680Z,51.50
2018-09-29T17:04:54.527Z,51.70
2018-09-29T17:07:23.373Z,52.20
2018-09-29T17:09:52.227Z,52.10
2018-09-29T17:12:21.047Z,52.40
2018-09-29T17:14:50.621Z,52.50
2018-09-29T17:17:19.469Z,53.90
2018-09-29T17:19:48.308Z,54.90
2018-09-29T17:22:17.137Z,55.90
2018-09-29T17:24:45.988Z,57.00
2018-09-29T17:27:14.860Z,57.70
2018-09-29T17:29:43.702Z,58.20
2018-09-29T17:32:12.541Z,58.90
2018-09-29T17:34:41.604Z,59.10
2018-09-29T17:37:10.342Z,59.10
2018-09-29T17:39:39.915Z,59.30
2018-09-29T17:42:08.790Z,60.50
2018-09-29T17:44:37.615Z,61.70
2018-09-29T17:47:06.469Z,62.20
2018-09-29T17:49:35.306Z,62.70
2018-09-29T17:52:04.164Z,63.30
2018-09-29T17:54:32.991Z,63.80
2018-09-29T17:57:02.600Z,65.00
2018-09-29T17:59:31.417Z,63.60
2018-09-29T18:02:00.265Z,63.80
2018-09-29T18:04:29.910Z,64.20
2018-09-29T18:06:58.712Z,63.40
2018-09-29T18:09:27.537Z,63.00
2018-09-29T18:11:56.385Z,62.50
2018-09-29T18:14:25.221Z,63.10
2018-09-29T18:16:54.071Z,63.20
2018-09-29T18:19:22.897Z,63.60
2018-09-29T18:21:51.793Z,63.40
2018-09-29T18:24:20.579Z,63.20
2018-09-29T18:26:50.160Z,63.50
2018-09-29T18:29:18.990Z,62.90
2018-09-29T18:31:48.585Z,64.20
2018-09-29T18:34:18.194Z,65.10
2018-09-29T18:36:47.780Z,65.00
2018-09-29T18:39:16.624Z,65.20
2018-09-29T18:41:45.488Z,65.40
2018-09-29T18:44:15.094Z,65.40
2018-09-29T18:46:44.779Z,65.20
2018-09-29T18:49:13.583Z,65.00
2018-09-29T18:51:43.224Z,65.00
2018-09-29T18:54:12.010Z,66.10
2018-09-29T18:56:40.845Z,66.20
2018-09-29T18:59:09.692Z,66.80
2018-09-29T19:01:38.548Z,67.80
2018-09-29T19:04:07.407Z,68.20
2018-09-29T19:06:36.242Z,68.00
2018-09-29T19:09:05.118Z,68.10
2018-09-29T19:11:33.934Z,68.00
2018-09-29T19:14:02.775Z,68.80
2018-09-29T19:16:31.629Z,68.40
2018-09-29T19:19:00.465Z,69.60
2018-09-29T19:21:30.071Z,70.00
2018-09-29T19:23:58.913Z,70.60
2018-09-29T19:26:27.755Z,70.60
2018-09-29T19:28:57.338Z,71.80
2018-09-29T19:31:26.167Z,72.00
2018-09-29T19:33:55.002Z,72.20
2018-09-29T19:36:23.834Z,72.20
2018-09-29T19:38:53.469Z,73.30
2018-09-29T19:41:22.260Z,72.80
2018-09-29T19:43:51.103Z,73.60
2018-09-29T19:48:49.378Z,74.20
2018-09-29T19:51:18.245Z,74.50
2018-09-29T19:53:47.052Z,74.50
2018-09-29T19:56:15.896Z,74.30
2018-09-29T19:58:44.742Z,74.60
2018-09-29T20:03:43.121Z,75.10
2018-09-29T20:06:11.891Z,75.40
2018-09-29T20:08:40.749Z,75.60
2018-09-29T20:11:09.587Z,76.40
2018-09-29T20:13:38.415Z,76.50
2018-09-29T20:16:07.252Z,76.20
2018-09-29T20:18:36.097Z,76.00
2018-09-29T20:21:05.663Z,76.30
2018-09-29T20:23:34.529Z,77.00
2018-09-29T20:26:03.366Z,76.90
2018-09-29T20:28:32.214Z,76.90
2018-09-29T20:31:01.048Z,77.50
2018-09-29T20:33:29.880Z,77.90
2018-09-29T20:35:58.723Z,78.10
2018-09-29T20:38:27.582Z,78.80
2018-09-29T20:40:56.423Z,78.90
2018-09-29T20:43:25.260Z,79.20
2018-09-29T20:45:54.086Z,79.40
2018-09-29T20:48:22.940Z,80.20
2018-09-29T20:50:51.782Z,80.30
2018-09-29T20:53:20.623Z,81.00
2018-09-29T20:55:49.452Z,81.10
2018-09-29T20:58:19.036Z,81.60
2018-09-29T21:00:47.884Z,81.70
2018-09-29T21:03:16.715Z,82.00
2018-09-29T21:05:45.553Z,82.50
2018-09-29T21:08:14.383Z,82.60
2018-09-29T21:10:43.256Z,82.90
2018-09-29T21:13:12.099Z,83.40
2018-09-29T21:15:41.668Z,83.90
2018-09-29T21:18:10.512Z,83.60
2018-09-29T21:20:39.342Z,83.60
2018-09-29T21:23:08.179Z,84.50
2018-09-29T21:25:37.054Z,85.00
2018-09-29T21:28:05.857Z,84.90
2018-09-29T21:30:34.701Z,85.30
2018-09-29T21:33:03.529Z,85.90
2018-09-29T21:35:32.375Z,86.10
2018-09-29T21:38:01.222Z,86.30
2018-09-29T21:40:30.069Z,87.30
2018-09-29T21:42:58.927Z,87.60
2018-09-29T21:45:27.765Z,87.50
2018-09-29T21:47:57.340Z,88.80
2018-09-29T21:50:26.168Z,89.40
2018-09-29T21:52:55.009Z,90.00
2018-09-29T21:55:23.842Z,90.00
2018-09-29T21:57:52.692Z,90.30
2018-09-29T22:00:21.523Z,90.50
2018-09-29T22:02:50.358Z,91.00
2018-09-29T22:05:19.197Z,90.80
2018-09-29T22:07:48.033Z,90.70
2018-09-29T22:10:16.862Z,90.60
2018-09-29T22:12:46.436Z,90.70
2018-09-29T22:15:15.292Z,90.90
2018-09-29T22:17:44.122Z,91.10
2018-09-29T22:20:12.953Z,91.70
2018-09-29T22:22:41.808Z,92.40
2018-09-29T22:25:10.649Z,92.60
2018-09-29T22:27:39.480Z,92.80
2018-09-29T22:30:08.303Z,93.30
2018-09-29T22:32:37.888Z,93.20
2018-09-29T22:37:36.131Z,92.90
2018-09-29T22:40:04.985Z,92.80
2018-09-29T22:42:33.816Z,92.70
2018-09-29T22:45:02.654Z,93.00
2018-09-29T22:47:31.488Z,93.30
2018-09-29T22:50:00.328Z,93.70
2018-09-29T22:52:29.928Z,94.00
2018-09-29T22:57:28.221Z,93.90
2018-09-29T22:59:57.113Z,94.00
2018-09-29T23:02:25.911Z,94.00
2018-09-29T23:04:55.476Z,94.10
2018-09-29T23:07:24.338Z,93.90
2018-09-29T23:09:53.154Z,93.90
2018-09-29T23:12:21.987Z,93.80
2018-09-29T23:14:50.813Z,94.20
2018-09-29T23:17:19.642Z,94.40
2018-09-29T23:19:48.500Z,94.40
2018-09-29T23:22:17.336Z,95.10
2018-09-29T23:24:46.905Z,95.20
2018-09-29T23:27:15.733Z,95.40
2018-09-29T23:29:44.580Z,95.60
2018-09-29T23:32:13.495Z,95.50
2018-09-29T23:34:42.228Z,96.00
2018-09-29T23:37:11.063Z,95.90
2018-09-29T23:39:39.902Z,95.90
2018-09-29T23:42:08.734Z,96.00
2018-09-29T23:44:37.569Z,95.90
2018-09-29T23:47:06.420Z,95.70
2018-09-29T23:49:35.260Z,95.80
2018-09-29T23:52:04.081Z,96.20
2018-09-29T23:54:32.981Z,96.20
2018-09-29T23:57:02.498Z,96.30
2018-09-29T23:59:31.320Z,96.20
